This is the latest recevied weather packets stored in our database for station/object Dunnningn. If no packets are shown the sender has not sent any weather packets the latest 1 day(s).
| Time | Temp. | Humidity | Pressure | Rain* | Wind** | Luminosity | Snow |
|---|---|---|---|---|---|---|---|
| 1777962731 | 11.67° C | 86% | 1009.3 hPa | 0 mm | 0 m/s | - | - |
| 1777960932 | 10.56° C | 87% | 1009.1 hPa | 0 mm | 0 m/s | - | - |
| 1777959131 | 10° C | 90% | 1009.1 hPa | 0 mm | 0.45 m/s, 263° | - | - |
| 1777957331 | 9.44° C | 90% | 1009.4 hPa | 0 mm | 0 m/s | - | - |
| 1777955531 | 9.44° C | 90% | 1009.4 hPa | 0 mm | 0.89 m/s, 263° | - | - |
| 1777953731 | 9.44° C | 89% | 1009.7 hPa | 0 mm | 0.45 m/s, 263° | - | - |
| 1777951931 | 9.44° C | 88% | 1009.7 hPa | 0 mm | 0.89 m/s, 263° | - | - |
| 1777950133 | 9.44° C | 87% | 1009.9 hPa | 0 mm | 0 m/s | - | - |
| 1777948331 | 10° C | 86% | 1010.1 hPa | 0 mm | 0 m/s | - | - |
| 1777946531 | 10.56° C | 85% | 1010.4 hPa | 0 mm | 0 m/s | - | - |
| 1777944731 | 11.11° C | 84% | 1010.6 hPa | 0 mm | 0 m/s | - | - |
| 1777942931 | 11.11° C | 84% | 1010.9 hPa | 0 mm | 0 m/s | - | - |
| 1777941128 | 11.11° C | 84% | 1011.4 hPa | 0 mm | 0 m/s | - | - |
| 1777939330 | 11.67° C | 83% | 1011.7 hPa | 0 mm | 0 m/s | - | - |
| 1777937529 | 11.67° C | 83% | 1011.9 hPa | 0 mm | 0 m/s | - | - |
| 1777935729 | 11.67° C | 82% | 1012 hPa | 0 mm | 0 m/s | - | - |
| 1777933934 | 11.67° C | 82% | 1012.2 hPa | 0 mm | 0 m/s | - | - |
| 1777930329 | 12.22° C | 81% | 1012.7 hPa | 0 mm | 0.45 m/s, 263° | - | - |
| 1777928529 | 12.22° C | 80% | 1012.4 hPa | 0 mm | 0 m/s | - | - |
| 1777926729 | 12.78° C | 79% | 1012.5 hPa | 0 mm | 0.89 m/s, 163° | - | - |
| 1777924929 | 12.78° C | 78% | 1012.4 hPa | 0 mm | 0.45 m/s, 267° | - | - |
| 1777923129 | 13.33° C | 78% | 1012.3 hPa | 0 mm | 0.45 m/s, 0° | - | - |
* Rain since midnight (hover to see other rain measurements)
** Current wind speed in m/s (hover to see current wind gust speed)